Time;durP1;ratioP1;P1;durP2;ratioP2;P2;SDS_P1;SDS_P2;PMS_P1;PMS_P2;Temp;Humidity;BMP_temperature;BMP_pressure;BME280_temperature;BME280_humidity;BME280_pressure;Samples;Min_cycle;Max_cycle;Signal;HPM_P1;HPM_P2
2023/12/18 00:03:15;;;;;;;54.03;29.37;;;;;;;;;;10293212;28;20414;-80
2023/12/18 00:08:16;;;;;;;54.30;26.80;;;;;;;;;;10295810;28;20550;-79
2023/12/18 00:13:17;;;;;;;57.40;28.50;;;;;;;;;;10290287;28;20040;-79
2023/12/18 00:18:18;;;;;;;59.40;28.40;;;;;;;;;;10285858;28;20387;-79
2023/12/18 00:23:26;;;;;;;65.07;33.87;;;;;;;;;;10288576;28;20182;-79
2023/12/18 00:28:27;;;;;;;58.50;29.03;;;;;;;;;;10271709;28;20101;-79
2023/12/18 00:33:28;;;;;;;48.43;25.37;;;;;;;;;;10277523;28;20039;-81
2023/12/18 00:38:29;;;;;;;46.77;24.43;;;;;;;;;;10283925;28;20114;-79
2023/12/18 00:43:30;;;;;;;49.57;26.97;;;;;;;;;;10267541;28;20061;-80
2023/12/18 00:48:32;;;;;;;49.47;26.63;;;;;;;;;;10284888;28;20117;-79
2023/12/18 00:53:33;;;;;;;59.10;29.57;;;;;;;;;;10292604;28;20141;-80
2023/12/18 00:58:34;;;;;;;62.17;30.53;;;;;;;;;;10284972;28;20122;-79
2023/12/18 01:03:35;;;;;;;58.43;31.77;;;;;;;;;;10283887;28;20046;-79
2023/12/18 01:08:36;;;;;;;65.73;32.33;;;;;;;;;;10284021;28;20110;-79
2023/12/18 01:13:37;;;;;;;58.43;31.70;;;;;;;;;;10286659;28;20043;-81
2023/12/18 01:18:38;;;;;;;53.13;30.43;;;;;;;;;;10290673;28;20860;-79
2023/12/18 01:23:39;;;;;;;55.87;28.33;;;;;;;;;;10281731;28;20066;-79
2023/12/18 01:28:40;;;;;;;47.43;26.57;;;;;;;;;;10277237;28;20106;-79
2023/12/18 01:33:41;;;;;;;46.93;26.87;;;;;;;;;;10283278;28;20047;-78
2023/12/18 01:38:42;;;;;;;52.10;27.33;;;;;;;;;;10283027;28;20540;-79
2023/12/18 01:43:51;;;;;;;49.60;26.67;;;;;;;;;;10277226;28;20074;-79
2023/12/18 01:48:52;;;;;;;52.77;26.87;;;;;;;;;;10285510;28;20034;-79
2023/12/18 01:53:55;;;;;;;50.17;24.17;;;;;;;;;;10290931;28;20078;-79
2023/12/18 01:58:58;;;;;;;50.27;25.57;;;;;;;;;;10295162;28;20046;-81
2023/12/18 02:03:59;;;;;;;50.37;27.10;;;;;;;;;;10291266;28;20043;-79
2023/12/18 02:09:00;;;;;;;51.33;26.97;;;;;;;;;;10284561;28;20034;-79
2023/12/18 02:14:01;;;;;;;45.87;22.23;;;;;;;;;;10294273;28;20177;-81
2023/12/18 02:19:02;;;;;;;41.30;23.00;;;;;;;;;;10289877;28;20046;-79
2023/12/18 02:24:04;;;;;;;40.67;23.83;;;;;;;;;;10289660;28;20050;-80
2023/12/18 02:29:05;;;;;;;53.17;28.50;;;;;;;;;;10299736;28;20047;-79
2023/12/18 02:34:06;;;;;;;48.33;27.07;;;;;;;;;;10289388;28;20129;-79
2023/12/18 02:39:07;;;;;;;55.40;30.57;;;;;;;;;;10288208;28;20051;-79
2023/12/18 02:44:08;;;;;;;52.73;28.37;;;;;;;;;;10300903;28;20138;-81
2023/12/18 02:49:10;;;;;;;53.90;27.90;;;;;;;;;;10289442;28;20058;-79
2023/12/18 02:54:11;;;;;;;60.57;33.13;;;;;;;;;;10288217;28;20057;-79
2023/12/18 02:59:13;;;;;;;52.90;27.50;;;;;;;;;;10294839;28;20062;-80
2023/12/18 03:04:18;;;;;;;54.43;27.77;;;;;;;;;;10269867;28;20026;-79
2023/12/18 03:09:26;;;;;;;59.47;30.83;;;;;;;;;;10299419;28;20160;-80
2023/12/18 03:14:27;;;;;;;62.83;36.07;;;;;;;;;;10287756;28;20085;-79
2023/12/18 03:19:35;;;;;;;79.33;43.03;;;;;;;;;;10288934;28;20360;-79
2023/12/18 03:24:39;;;;;;;63.73;36.67;;;;;;;;;;10288455;28;20035;-79
2023/12/18 03:29:40;;;;;;;62.87;33.23;;;;;;;;;;10287649;28;20034;-80
2023/12/18 03:34:41;;;;;;;43.47;23.07;;;;;;;;;;10287836;28;20041;-79
2023/12/18 03:39:42;;;;;;;52.67;26.43;;;;;;;;;;10291094;28;20450;-79
2023/12/18 03:44:43;;;;;;;52.47;25.40;;;;;;;;;;10295522;28;20472;-79
2023/12/18 03:49:45;;;;;;;41.77;20.63;;;;;;;;;;10286484;28;20137;-81
2023/12/18 03:54:46;;;;;;;53.20;25.93;;;;;;;;;;10286692;28;20043;-79
2023/12/18 03:59:47;;;;;;;37.53;19.33;;;;;;;;;;10293207;28;20022;-80
2023/12/18 04:04:48;;;;;;;51.87;26.30;;;;;;;;;;10286963;28;20145;-80
2023/12/18 04:09:49;;;;;;;48.47;29.20;;;;;;;;;;10297262;28;20034;-80
2023/12/18 04:14:50;;;;;;;53.10;27.10;;;;;;;;;;10297293;28;20085;-83
2023/12/18 04:19:52;;;;;;;56.57;31.97;;;;;;;;;;10285519;28;20077;-80
2023/12/18 04:24:53;;;;;;;55.13;30.33;;;;;;;;;;10279586;28;20139;-81
2023/12/18 04:29:54;;;;;;;49.40;29.10;;;;;;;;;;10284691;28;20035;-79
2023/12/18 04:34:55;;;;;;;58.03;33.50;;;;;;;;;;10277789;28;20625;-81
2023/12/18 04:39:56;;;;;;;60.27;33.73;;;;;;;;;;10286285;28;20061;-80
2023/12/18 04:44:58;;;;;;;69.53;36.97;;;;;;;;;;10289023;28;20038;-80
2023/12/18 04:49:59;;;;;;;64.93;32.77;;;;;;;;;;10273899;28;20435;-80
2023/12/18 04:55:00;;;;;;;61.10;31.60;;;;;;;;;;10286453;28;20035;-79
2023/12/18 05:00:02;;;;;;;69.87;35.87;;;;;;;;;;10272521;28;20430;-78
2023/12/18 05:05:03;;;;;;;68.73;34.47;;;;;;;;;;10293466;28;20398;-80
2023/12/18 05:10:05;;;;;;;69.53;35.77;;;;;;;;;;10297115;28;20050;-79
2023/12/18 05:15:06;;;;;;;60.23;32.47;;;;;;;;;;10295205;28;20132;-79
2023/12/18 05:20:08;;;;;;;57.87;31.13;;;;;;;;;;10294793;28;20117;-79
2023/12/18 05:25:10;;;;;;;56.60;32.57;;;;;;;;;;10294336;28;20537;-79
2023/12/18 05:30:11;;;;;;;46.90;28.77;;;;;;;;;;10296494;28;20035;-79
2023/12/18 05:35:12;;;;;;;55.10;29.47;;;;;;;;;;10290075;28;20081;-80
2023/12/18 05:40:13;;;;;;;56.37;31.40;;;;;;;;;;10291447;28;20153;-79
2023/12/18 05:45:14;;;;;;;59.80;32.40;;;;;;;;;;10291942;28;20534;-78
2023/12/18 05:50:15;;;;;;;51.33;28.87;;;;;;;;;;10290913;28;20121;-80
2023/12/18 05:55:16;;;;;;;46.57;24.10;;;;;;;;;;10282095;28;20435;-78
2023/12/18 06:00:19;;;;;;;44.67;25.20;;;;;;;;;;10289781;28;20121;-80
2023/12/18 06:05:20;;;;;;;45.30;25.80;;;;;;;;;;10290660;28;20034;-78
2023/12/18 06:10:21;;;;;;;45.80;25.50;;;;;;;;;;10290266;28;20473;-78
2023/12/18 06:15:22;;;;;;;46.73;24.97;;;;;;;;;;10281139;28;20034;-79
2023/12/18 06:20:23;;;;;;;55.07;32.00;;;;;;;;;;10273847;28;20026;-79
2023/12/18 06:25:24;;;;;;;53.47;29.50;;;;;;;;;;10288953;28;20039;-78
2023/12/18 06:30:25;;;;;;;60.80;34.60;;;;;;;;;;10289383;28;20117;-79
2023/12/18 06:35:33;;;;;;;65.20;39.70;;;;;;;;;;10281419;28;20043;-79
2023/12/18 06:40:34;;;;;;;65.33;38.63;;;;;;;;;;10271895;28;20102;-77
2023/12/18 06:45:35;;;;;;;71.63;42.07;;;;;;;;;;10284013;28;20161;-77
2023/12/18 06:50:36;;;;;;;104.80;55.77;;;;;;;;;;10285335;28;20117;-77
2023/12/18 06:55:38;;;;;;;91.63;48.47;;;;;;;;;;10284658;28;20043;-78
2023/12/18 07:00:40;;;;;;;133.10;69.60;;;;;;;;;;10288200;28;20445;-79
2023/12/18 07:05:42;;;;;;;147.50;74.33;;;;;;;;;;10282412;28;20035;-79
2023/12/18 07:10:43;;;;;;;133.60;69.73;;;;;;;;;;10282904;28;20049;-77
2023/12/18 07:15:44;;;;;;;117.63;61.77;;;;;;;;;;10274567;28;20093;-80
2023/12/18 07:20:45;;;;;;;102.30;56.20;;;;;;;;;;10285952;28;20066;-78
2023/12/18 07:25:46;;;;;;;95.57;50.47;;;;;;;;;;10275767;28;20035;-77
2023/12/18 07:30:48;;;;;;;78.10;40.70;;;;;;;;;;10273891;28;20026;-77
2023/12/18 07:35:49;;;;;;;75.70;40.10;;;;;;;;;;10286543;28;20049;-78
2023/12/18 07:40:50;;;;;;;71.60;40.93;;;;;;;;;;10274011;28;20392;-77
2023/12/18 07:45:51;;;;;;;77.67;41.30;;;;;;;;;;10284081;28;20034;-78
2023/12/18 07:50:52;;;;;;;58.33;30.27;;;;;;;;;;10278296;28;20074;-79
2023/12/18 07:55:53;;;;;;;51.10;27.70;;;;;;;;;;10286276;28;20157;-79
2023/12/18 08:00:54;;;;;;;44.47;24.63;;;;;;;;;;10279650;28;20432;-81
2023/12/18 08:05:55;;;;;;;50.80;27.33;;;;;;;;;;10283113;28;20125;-80
2023/12/18 08:10:57;;;;;;;62.87;31.33;;;;;;;;;;10284476;28;20042;-81
2023/12/18 08:15:58;;;;;;;35.17;19.27;;;;;;;;;;10285045;28;20161;-80
2023/12/18 08:20:59;;;;;;;31.20;16.53;;;;;;;;;;10295352;28;20069;-78
2023/12/18 08:26:00;;;;;;;34.50;20.10;;;;;;;;;;10284290;28;20114;-80
2023/12/18 08:31:01;;;;;;;33.63;18.30;;;;;;;;;;10288395;28;20026;-78
2023/12/18 08:36:03;;;;;;;37.57;19.53;;;;;;;;;;10275019;28;20042;-80
2023/12/18 08:41:04;;;;;;;32.93;19.40;;;;;;;;;;10285245;28;20063;-78
2023/12/18 08:46:05;;;;;;;34.40;19.00;;;;;;;;;;10292633;28;20821;-81
2023/12/18 08:51:06;;;;;;;37.03;19.17;;;;;;;;;;10286454;28;20089;-81
2023/12/18 08:56:07;;;;;;;38.73;19.43;;;;;;;;;;10290447;28;20053;-80
2023/12/18 09:01:08;;;;;;;38.90;21.20;;;;;;;;;;10296613;28;20038;-80
2023/12/18 09:06:09;;;;;;;38.23;21.30;;;;;;;;;;10284226;28;20062;-81
2023/12/18 09:11:24;;;;;;;38.80;20.50;;;;;;;;;;10285632;28;20527;-80
2023/12/18 09:16:25;;;;;;;34.47;20.47;;;;;;;;;;10286347;28;20051;-79
2023/12/18 09:21:26;;;;;;;45.23;23.80;;;;;;;;;;10287064;28;20122;-80
2023/12/18 09:26:27;;;;;;;38.53;20.67;;;;;;;;;;10285176;28;20116;-81
2023/12/18 09:31:35;;;;;;;37.70;21.50;;;;;;;;;;10285824;28;20061;-82
2023/12/18 09:36:36;;;;;;;36.60;20.83;;;;;;;;;;10291627;28;20560;-79
2023/12/18 09:41:37;;;;;;;38.37;21.37;;;;;;;;;;10274288;28;20566;-79
2023/12/18 09:46:38;;;;;;;36.70;22.30;;;;;;;;;;10286203;28;20041;-81
2023/12/18 09:51:41;;;;;;;36.03;22.53;;;;;;;;;;10293041;28;20113;-79
2023/12/18 09:56:42;;;;;;;38.10;19.70;;;;;;;;;;10293964;28;20067;-80
2023/12/18 10:01:44;;;;;;;29.93;17.33;;;;;;;;;;10284742;28;20035;-80
2023/12/18 10:06:45;;;;;;;26.13;14.73;;;;;;;;;;10283353;28;20113;-79
2023/12/18 10:11:56;;;;;;;25.53;13.90;;;;;;;;;;10296642;28;20629;-79
2023/12/18 10:16:57;;;;;;;26.17;14.70;;;;;;;;;;10295076;28;20046;-79
2023/12/18 10:21:58;;;;;;;30.97;12.63;;;;;;;;;;10291876;28;20574;-79
2023/12/18 10:26:59;;;;;;;23.23;12.70;;;;;;;;;;10292036;28;20030;-80
2023/12/18 10:32:00;;;;;;;22.00;12.10;;;;;;;;;;10291384;28;20038;-78
2023/12/18 10:37:02;;;;;;;22.87;11.83;;;;;;;;;;10293197;28;20129;-78
2023/12/18 10:42:06;;;;;;;19.40;11.03;;;;;;;;;;10289322;28;20058;-79
2023/12/18 10:47:08;;;;;;;21.40;11.83;;;;;;;;;;10290127;28;20042;-79
2023/12/18 10:52:10;;;;;;;21.07;10.93;;;;;;;;;;10286133;28;20121;-79
2023/12/18 10:57:11;;;;;;;21.07;12.60;;;;;;;;;;10288904;28;20058;-78
2023/12/18 11:02:13;;;;;;;19.10;11.03;;;;;;;;;;10288466;28;20442;-79
2023/12/18 11:07:19;;;;;;;20.60;12.23;;;;;;;;;;10288704;28;20122;-79
2023/12/18 11:12:21;;;;;;;18.45;10.20;;;;;;;;;;10288380;28;20026;-80
2023/12/18 11:17:28;;;;;;;19.48;11.20;;;;;;;;;;10276062;28;20035;-80
2023/12/18 11:22:40;;;;;;;20.80;10.98;;;;;;;;;;10287452;28;20043;-79
2023/12/18 11:27:42;;;;;;;20.33;10.60;;;;;;;;;;10286383;28;20491;-79
2023/12/18 11:32:53;;;;;;;23.23;10.65;;;;;;;;;;10287350;28;20497;-81
2023/12/18 11:37:58;;;;;;;19.05;10.23;;;;;;;;;;10287865;28;20046;-79
2023/12/18 11:42:59;;;;;;;17.50;10.10;;;;;;;;;;10286880;28;20065;-79
2023/12/18 11:48:04;;;;;;;19.35;10.30;;;;;;;;;;10286428;28;20037;-79
2023/12/18 11:53:25;;;;;;;22.40;10.80;;;;;;;;;;10285933;28;20126;-78
2023/12/18 11:58:27;;;;;;;22.50;12.10;;;;;;;;;;10270692;28;20046;-77
2023/12/18 12:03:28;;;;;;;21.88;12.32;;;;;;;;;;10283251;28;20569;-79
2023/12/18 12:08:30;;;;;;;21.88;10.95;;;;;;;;;;10279964;28;20042;-79
2023/12/18 12:13:31;;;;;;;19.42;10.60;;;;;;;;;;10273925;28;20097;-80
2023/12/18 12:18:34;;;;;;;25.80;14.85;;;;;;;;;;10287205;28;20030;-81
2023/12/18 12:23:42;;;;;;;30.00;14.73;;;;;;;;;;10284822;28;20066;-78
2023/12/18 12:28:43;;;;;;;19.20;10.25;;;;;;;;;;10284606;28;20340;-81
2023/12/18 12:33:45;;;;;;;18.52;10.35;;;;;;;;;;10275180;28;20033;-80
2023/12/18 12:38:46;;;;;;;29.30;14.77;;;;;;;;;;10259264;28;20497;-80
2023/12/18 12:43:47;;;;;;;38.58;15.55;;;;;;;;;;10282656;28;20137;-80
2023/12/18 12:48:49;;;;;;;42.25;17.90;;;;;;;;;;10285117;28;20121;-80
2023/12/18 12:53:50;;;;;;;38.78;19.02;;;;;;;;;;10284222;28;20138;-79
2023/12/18 12:58:51;;;;;;;36.30;18.23;;;;;;;;;;10282918;28;20086;-80
2023/12/18 13:03:53;;;;;;;21.17;11.48;;;;;;;;;;10277172;28;20114;-82
2023/12/18 13:08:54;;;;;;;23.05;11.63;;;;;;;;;;10283189;28;20034;-80
2023/12/18 13:13:55;;;;;;;23.80;11.10;;;;;;;;;;10284233;28;20410;-81
2023/12/18 13:18:56;;;;;;;24.38;10.70;;;;;;;;;;10282734;28;20034;-81
2023/12/18 13:23:57;;;;;;;22.45;11.02;;;;;;;;;;10270962;28;20034;-80
2023/12/18 13:28:58;;;;;;;19.58;9.40;;;;;;;;;;10273686;28;20038;-81
2023/12/18 13:33:59;;;;;;;17.83;9.68;;;;;;;;;;10278648;28;20154;-80
2023/12/18 13:39:01;;;;;;;18.20;9.80;;;;;;;;;;10284751;28;20070;-80
2023/12/18 13:44:11;;;;;;;21.02;9.93;;;;;;;;;;10284428;28;20058;-79
2023/12/18 13:49:13;;;;;;;18.88;10.93;;;;;;;;;;10289557;28;20026;-79
2023/12/18 13:54:14;;;;;;;27.50;15.67;;;;;;;;;;10288024;28;20129;-79
2023/12/18 13:59:15;;;;;;;27.40;13.17;;;;;;;;;;10290828;28;20407;-79
2023/12/18 14:04:16;;;;;;;28.67;14.83;;;;;;;;;;10284309;28;20027;-79
2023/12/18 14:09:18;;;;;;;28.87;14.70;;;;;;;;;;10276501;28;20122;-79
2023/12/18 14:14:19;;;;;;;61.33;29.17;;;;;;;;;;10290100;28;20395;-79
2023/12/18 14:19:21;;;;;;;42.83;20.70;;;;;;;;;;10271071;28;20027;-79
2023/12/18 14:24:22;;;;;;;35.47;16.90;;;;;;;;;;10282657;28;20031;-79
2023/12/18 14:29:23;;;;;;;52.20;26.27;;;;;;;;;;10277198;28;20038;-79
2023/12/18 14:34:24;;;;;;;96.70;46.17;;;;;;;;;;10283571;28;20035;-82
2023/12/18 14:39:25;;;;;;;73.90;39.10;;;;;;;;;;10278240;28;20049;-79
2023/12/18 14:44:30;;;;;;;55.87;30.63;;;;;;;;;;10288427;28;20063;-78
2023/12/18 14:49:31;;;;;;;35.50;19.77;;;;;;;;;;10269583;28;20542;-79
2023/12/18 14:54:32;;;;;;;41.27;21.40;;;;;;;;;;10287719;28;20153;-80
2023/12/18 14:59:33;;;;;;;63.67;31.07;;;;;;;;;;10287480;28;20058;-81
2023/12/18 15:04:34;;;;;;;68.70;33.20;;;;;;;;;;10277475;28;20135;-79
2023/12/18 15:09:35;;;;;;;66.83;33.00;;;;;;;;;;10294762;28;20479;-78
2023/12/18 15:14:36;;;;;;;85.60;36.40;;;;;;;;;;10296343;28;20039;-80
2023/12/18 15:19:40;;;;;;;67.07;31.60;;;;;;;;;;10278586;28;20689;-79
2023/12/18 15:24:41;;;;;;;63.50;28.87;;;;;;;;;;10295053;28;20549;-81
2023/12/18 15:29:57;;;;;;;67.60;30.07;;;;;;;;;;10290672;28;20076;-80
2023/12/18 15:34:58;;;;;;;84.40;35.05;;;;;;;;;;10270146;28;20151;-77
2023/12/18 15:39:59;;;;;;;81.10;34.43;;;;;;;;;;10286379;28;20402;-79
2023/12/18 15:45:01;;;;;;;54.53;27.17;;;;;;;;;;10286809;28;20054;-79
2023/12/18 15:50:02;;;;;;;78.27;33.37;;;;;;;;;;10300003;28;20407;-79
2023/12/18 15:55:03;;;;;;;55.30;30.17;;;;;;;;;;10297590;28;20770;-79
2023/12/18 16:00:04;;;;;;;62.67;30.30;;;;;;;;;;10286845;28;20035;-79
2023/12/18 16:05:07;;;;;;;72.67;35.13;;;;;;;;;;10284612;28;20027;-79
2023/12/18 16:10:08;;;;;;;73.37;34.50;;;;;;;;;;10286255;28;20081;-79
2023/12/18 16:15:09;;;;;;;61.10;31.90;;;;;;;;;;10280056;28;20038;-79
2023/12/18 16:20:10;;;;;;;57.50;30.83;;;;;;;;;;10285152;28;20121;-80
2023/12/18 16:25:11;;;;;;;55.23;28.47;;;;;;;;;;10284398;28;20046;-79
2023/12/18 16:30:13;;;;;;;59.87;30.93;;;;;;;;;;10271411;28;20085;-79
2023/12/18 16:35:15;;;;;;;57.13;32.20;;;;;;;;;;10282471;28;20042;-82
2023/12/18 16:40:16;;;;;;;75.23;37.53;;;;;;;;;;10285644;28;20042;-81
2023/12/18 16:45:18;;;;;;;100.80;49.40;;;;;;;;;;10285156;28;20153;-80
2023/12/18 16:50:19;;;;;;;123.80;62.10;;;;;;;;;;10275773;28;20102;-79
2023/12/18 16:55:20;;;;;;;99.73;47.33;;;;;;;;;;10280993;28;20158;-81
2023/12/18 17:00:21;;;;;;;96.97;48.13;;;;;;;;;;10283333;28;20030;-80
2023/12/18 17:05:22;;;;;;;93.73;48.97;;;;;;;;;;10284698;28;20030;-78
2023/12/18 17:10:23;;;;;;;96.27;48.97;;;;;;;;;;10274915;28;20027;-80
2023/12/18 17:15:28;;;;;;;205.60;91.87;;;;;;;;;;10283741;28;20043;-81
2023/12/18 17:20:29;;;;;;;140.27;74.90;;;;;;;;;;10286417;28;20479;-79
2023/12/18 17:25:30;;;;;;;187.30;109.70;;;;;;;;;;10292478;28;20041;-79
2023/12/18 17:30:32;;;;;;;170.73;91.60;;;;;;;;;;10274221;28;20046;-79
2023/12/18 17:35:33;;;;;;;119.47;62.40;;;;;;;;;;10290932;28;20490;-79
2023/12/18 17:40:34;;;;;;;120.07;64.77;;;;;;;;;;10289791;28;20046;-79
2023/12/18 17:45:35;;;;;;;103.27;52.77;;;;;;;;;;10295945;28;20039;-81
2023/12/18 17:50:37;;;;;;;79.40;41.10;;;;;;;;;;10277413;28;20129;-79
2023/12/18 17:55:38;;;;;;;80.10;41.67;;;;;;;;;;10306657;28;20047;-78
2023/12/18 18:00:39;;;;;;;73.47;39.87;;;;;;;;;;10280927;28;20039;-79
2023/12/18 18:05:40;;;;;;;74.70;39.23;;;;;;;;;;10285999;28;20493;-78
2023/12/18 18:10:41;;;;;;;76.77;42.47;;;;;;;;;;10303738;28;20041;-81
2023/12/18 18:15:43;;;;;;;76.80;41.23;;;;;;;;;;10293179;28;20035;-80
2023/12/18 18:20:50;;;;;;;110.60;63.07;;;;;;;;;;10306990;28;20039;-79
2023/12/18 18:25:51;;;;;;;125.20;66.57;;;;;;;;;;10284851;28;20038;-81
2023/12/18 18:30:55;;;;;;;100.83;49.13;;;;;;;;;;10289833;28;20463;-80
2023/12/18 18:35:56;;;;;;;109.67;55.40;;;;;;;;;;10289363;28;20038;-80
2023/12/18 18:40:57;;;;;;;121.07;57.13;;;;;;;;;;10286668;28;20063;-81
2023/12/18 18:45:58;;;;;;;134.13;67.00;;;;;;;;;;10288402;28;20443;-79
2023/12/18 18:51:00;;;;;;;165.70;78.60;;;;;;;;;;10277770;28;20039;-79
2023/12/18 18:56:03;;;;;;;113.80;52.27;;;;;;;;;;10300163;28;20101;-79
2023/12/18 19:01:04;;;;;;;115.53;50.00;;;;;;;;;;10297384;28;20035;-82
2023/12/18 19:06:05;;;;;;;116.90;50.37;;;;;;;;;;10291098;28;20443;-79
2023/12/18 19:11:06;;;;;;;149.23;61.83;;;;;;;;;;10292553;28;20042;-79
2023/12/18 19:16:07;;;;;;;90.13;41.40;;;;;;;;;;10307296;28;20043;-80
2023/12/18 19:21:09;;;;;;;141.50;60.50;;;;;;;;;;10291062;28;20505;-83
2023/12/18 19:26:10;;;;;;;116.97;54.00;;;;;;;;;;10294940;28;20034;-80
2023/12/18 19:31:11;;;;;;;105.47;47.70;;;;;;;;;;10302780;28;20502;-79
2023/12/18 19:36:15;;;;;;;84.67;40.27;;;;;;;;;;10279968;28;20502;-82
2023/12/18 19:41:19;;;;;;;138.90;61.10;;;;;;;;;;10268145;28;20077;-80
2023/12/18 19:46:20;;;;;;;106.50;48.73;;;;;;;;;;10286441;28;20368;-80
2023/12/18 19:51:21;;;;;;;106.53;49.20;;;;;;;;;;10286726;28;20034;-80
2023/12/18 19:56:23;;;;;;;130.37;61.03;;;;;;;;;;10299155;28;20038;-79
2023/12/18 20:01:24;;;;;;;113.63;53.10;;;;;;;;;;10302625;28;20034;-79
2023/12/18 20:06:25;;;;;;;135.87;58.37;;;;;;;;;;10286240;28;20227;-79
2023/12/18 20:11:26;;;;;;;124.13;58.73;;;;;;;;;;10290860;28;20041;-79
2023/12/18 20:16:27;;;;;;;120.33;59.73;;;;;;;;;;10286422;28;20047;-79
2023/12/18 20:21:28;;;;;;;96.20;48.97;;;;;;;;;;10273212;28;20039;-79
2023/12/18 20:26:29;;;;;;;102.23;50.13;;;;;;;;;;10285729;28;20035;-80
2023/12/18 20:31:30;;;;;;;98.87;47.90;;;;;;;;;;10286068;28;20039;-80
2023/12/18 20:36:31;;;;;;;92.77;44.37;;;;;;;;;;10286668;28;20038;-80
2023/12/18 20:41:46;;;;;;;81.13;41.37;;;;;;;;;;10287557;28;20058;-79
2023/12/18 20:46:54;;;;;;;81.13;42.07;;;;;;;;;;10295257;28;20027;-79
2023/12/18 20:51:55;;;;;;;87.03;44.43;;;;;;;;;;10284686;28;20570;-79
2023/12/18 20:56:56;;;;;;;87.03;46.67;;;;;;;;;;10294359;28;20035;-79
2023/12/18 21:01:57;;;;;;;90.87;42.97;;;;;;;;;;10272090;28;20433;-80
2023/12/18 21:06:58;;;;;;;95.10;43.97;;;;;;;;;;10285071;28;20035;-81
2023/12/18 21:12:06;;;;;;;92.70;42.63;;;;;;;;;;10285535;28;20364;-80
2023/12/18 21:17:07;;;;;;;111.87;50.33;;;;;;;;;;10284779;28;20072;-79
2023/12/18 21:22:08;;;;;;;146.03;65.27;;;;;;;;;;10284739;28;20041;-79
2023/12/18 21:27:09;;;;;;;167.27;71.10;;;;;;;;;;10288176;28;20463;-80
2023/12/18 21:32:17;;;;;;;116.40;51.67;;;;;;;;;;10284562;28;20442;-80
2023/12/18 21:37:18;;;;;;;142.47;64.60;;;;;;;;;;10283876;28;20047;-79
2023/12/18 21:42:20;;;;;;;113.47;55.40;;;;;;;;;;10297082;28;20058;-78
2023/12/18 21:47:23;;;;;;;107.17;52.80;;;;;;;;;;10289920;28;20025;-78
2023/12/18 21:52:24;;;;;;;122.80;62.00;;;;;;;;;;10284011;28;20066;-78
2023/12/18 21:57:25;;;;;;;100.77;52.93;;;;;;;;;;10288136;28;20502;-79
2023/12/18 22:02:26;;;;;;;90.03;45.67;;;;;;;;;;10284385;28;20026;-79
2023/12/18 22:07:33;;;;;;;89.37;46.70;;;;;;;;;;10286834;28;20574;-78
2023/12/18 22:12:34;;;;;;;86.30;42.07;;;;;;;;;;10282574;28;20185;-79
2023/12/18 22:17:35;;;;;;;91.73;45.70;;;;;;;;;;10290804;28;20137;-79
2023/12/18 22:22:36;;;;;;;92.53;46.87;;;;;;;;;;10294012;28;20398;-79
2023/12/18 22:27:37;;;;;;;87.27;44.27;;;;;;;;;;10302934;28;20034;-81
2023/12/18 22:32:38;;;;;;;85.00;42.33;;;;;;;;;;10291669;28;20035;-79
2023/12/18 22:37:39;;;;;;;83.33;43.03;;;;;;;;;;10289467;28;20043;-80
2023/12/18 22:42:40;;;;;;;97.23;49.17;;;;;;;;;;10299526;28;20062;-81
2023/12/18 22:47:41;;;;;;;88.33;41.53;;;;;;;;;;10289341;28;20034;-79
2023/12/18 22:52:42;;;;;;;67.87;36.07;;;;;;;;;;10290026;28;20035;-79
2023/12/18 22:57:43;;;;;;;82.97;39.17;;;;;;;;;;10290463;28;20045;-80
2023/12/18 23:02:44;;;;;;;81.00;41.30;;;;;;;;;;10288606;28;20054;-80
2023/12/18 23:07:45;;;;;;;109.70;50.43;;;;;;;;;;10277097;28;20065;-79
2023/12/18 23:12:46;;;;;;;102.60;46.40;;;;;;;;;;10288533;28;20436;-78
2023/12/18 23:17:47;;;;;;;92.87;43.17;;;;;;;;;;10287349;28;20035;-79
2023/12/18 23:22:48;;;;;;;85.27;40.90;;;;;;;;;;10291511;28;20038;-78
2023/12/18 23:27:49;;;;;;;74.17;33.73;;;;;;;;;;10294834;28;20038;-78
2023/12/18 23:32:50;;;;;;;68.23;34.80;;;;;;;;;;10286949;28;20061;-80
2023/12/18 23:37:51;;;;;;;70.90;32.80;;;;;;;;;;10293187;28;20041;-78
2023/12/18 23:42:52;;;;;;;71.93;32.97;;;;;;;;;;10302722;28;20058;-78
2023/12/18 23:47:53;;;;;;;70.07;33.33;;;;;;;;;;10270518;28;20035;-79
2023/12/18 23:52:54;;;;;;;49.40;24.03;;;;;;;;;;10287078;28;20441;-80
2023/12/18 23:57:55;;;;;;;60.00;28.73;;;;;;;;;;10287694;28;20161;-79
